Time;durP1;ratioP1;P1;durP2;ratioP2;P2;SDS_P1;SDS_P2;PMS_P1;PMS_P2;Temp;Humidity;BMP_temperature;BMP_pressure;BME280_temperature;BME280_humidity;BME280_pressure;Samples;Min_cycle;Max_cycle;Signal;HPM_P1;HPM_P2
2023/03/23 00:07:32;;;;;;;35.50;19.27;;;5.20;99.90;;;;;;20985246;28;20081;-45
2023/03/23 00:17:34;;;;;;;24.23;14.52;;;4.90;99.90;;;;;;21000909;28;20044;-48
2023/03/23 00:27:36;;;;;;;32.05;16.15;;;4.70;99.90;;;;;;20950536;28;20367;-51
2023/03/23 00:37:38;;;;;;;25.67;14.85;;;4.70;99.90;;;;;;20999916;28;20029;-49
2023/03/23 00:47:41;;;;;;;19.05;11.40;;;4.80;99.90;;;;;;20998556;28;20033;-49
2023/03/23 00:57:42;;;;;;;22.88;12.52;;;4.80;99.90;;;;;;20998160;28;20510;-50
2023/03/23 01:07:45;;;;;;;21.10;12.45;;;4.60;99.90;;;;;;20998045;28;20040;-52
2023/03/23 01:17:47;;;;;;;23.33;12.95;;;4.50;99.90;;;;;;20981999;28;20079;-48
2023/03/23 01:27:49;;;;;;;25.33;13.27;;;4.60;99.90;;;;;;20932045;28;20432;-47
2023/03/23 01:37:51;;;;;;;21.20;12.38;;;4.60;99.90;;;;;;20995474;28;20080;-50
2023/03/23 01:47:55;;;;;;;16.25;9.05;;;4.60;99.90;;;;;;20994417;28;20397;-50
2023/03/23 01:57:58;;;;;;;14.30;8.15;;;4.70;99.90;;;;;;20924684;28;20037;-50
2023/03/23 02:08:02;;;;;;;19.08;10.20;;;4.50;99.90;;;;;;20992833;28;20122;-48
2023/03/23 02:18:50;;;;;;;18.08;9.40;;;4.40;99.90;;;;;;20973920;28;20067;-48
2023/03/23 02:29:03;;;;;;;10.73;6.47;;;4.40;99.90;;;;;;20882042;28;20098;-48
2023/03/23 02:39:19;;;;;;;12.85;7.32;;;4.40;99.90;;;;;;20972047;28;20090;-51
2023/03/23 02:49:22;;;;;;;12.10;7.10;;;4.30;99.90;;;;;;20971033;28;20067;-49
2023/03/23 02:59:24;;;;;;;8.73;4.38;;;4.20;99.90;;;;;;20988067;28;20079;-47
2023/03/23 03:09:55;;;;;;;14.55;6.00;;;4.20;99.90;;;;;;20969925;28;20044;-47
2023/03/23 03:20:10;;;;;;;13.43;7.43;;;4.10;99.90;;;;;;20914916;28;20083;-47
2023/03/23 03:30:16;;;;;;;13.25;7.28;;;4.20;99.90;;;;;;20927780;28;20076;-49
2023/03/23 03:40:21;;;;;;;19.38;8.70;;;4.20;99.90;;;;;;20985881;28;20029;-50
2023/03/23 03:50:26;;;;;;;11.80;7.28;;;4.10;99.90;;;;;;20955340;28;20037;-51
2023/03/23 04:00:28;;;;;;;16.67;9.13;;;4.00;99.90;;;;;;20929612;28;20043;-46
2023/03/23 04:10:31;;;;;;;21.80;11.23;;;4.00;99.90;;;;;;20967311;28;20047;-51
2023/03/23 04:20:34;;;;;;;21.08;11.20;;;4.10;99.90;;;;;;20972059;28;20045;-48
2023/03/23 04:30:36;;;;;;;21.35;11.63;;;4.20;99.90;;;;;;20929402;28;20032;-48
2023/03/23 04:40:43;;;;;;;21.15;11.50;;;4.10;99.90;;;;;;20983564;28;20439;-50
2023/03/23 04:51:04;;;;;;;25.33;12.95;;;4.20;99.90;;;;;;20965664;28;20032;-48
2023/03/23 05:01:07;;;;;;;27.45;13.30;;;4.20;99.90;;;;;;20971703;28;20036;-47
2023/03/23 05:11:15;;;;;;;27.75;14.00;;;4.30;99.90;;;;;;20928145;28;20090;-49
2023/03/23 05:21:18;;;;;;;24.83;13.55;;;4.40;99.90;;;;;;20996622;28;20045;-46
2023/03/23 05:31:25;;;;;;;22.02;11.85;;;4.60;99.90;;;;;;20977724;28;20041;-50
2023/03/23 05:41:29;;;;;;;19.70;10.45;;;4.80;99.90;;;;;;20992079;28;20148;-49
2023/03/23 05:51:31;;;;;;;16.30;9.15;;;5.20;99.90;;;;;;20977278;28;20032;-51
2023/03/23 06:01:33;;;;;;;13.75;8.13;;;5.50;99.90;;;;;;20975751;28;20033;-50
2023/03/23 06:11:35;;;;;;;13.90;8.27;;;5.60;99.90;;;;;;20974028;28;20094;-50
2023/03/23 06:21:55;;;;;;;14.35;6.75;;;5.90;99.90;;;;;;20985648;28;20478;-50
2023/03/23 06:32:28;;;;;;;;;;;6.40;99.90;;;;;;20991029;28;20029;-48
2023/03/23 06:42:30;;;;;;;13.15;7.03;;;6.80;99.90;;;;;;20969052;28;19912;-46
2023/03/23 06:52:51;;;;;;;14.67;8.33;;;7.10;99.90;;;;;;20989737;28;20028;-51
2023/03/23 07:02:55;;;;;;;16.65;9.02;;;7.70;99.90;;;;;;20970490;28;20295;-48
2023/03/23 07:12:57;;;;;;;17.50;10.02;;;8.60;99.90;;;;;;20970389;28;20045;-49
2023/03/23 07:23:01;;;;;;;17.52;10.77;;;9.60;99.90;;;;;;20969804;28;20032;-50
2023/03/23 07:33:26;;;;;;;19.90;11.82;;;10.10;99.90;;;;;;20975419;28;20045;-50
2023/03/23 07:43:30;;;;;;;28.23;16.70;;;10.30;99.90;;;;;;20968064;28;20556;-48
2023/03/23 07:53:51;;;;;;;23.23;14.43;;;11.40;99.90;;;;;;20978930;28;20032;-49
2023/03/23 08:04:28;;;;;;;25.13;16.10;;;12.40;99.90;;;;;;20647910;28;20093;-51
2023/03/23 08:14:59;;;;;;;;;;;12.70;99.90;;;;;;20630953;28;20066;-46
2023/03/23 08:25:01;;;;;;;27.83;17.55;;;12.20;99.90;;;;;;20646668;28;19972;-48
2023/03/23 08:35:34;;;;;;;28.70;17.60;;;12.00;99.90;;;;;;20776833;28;20126;-50
2023/03/23 08:45:56;;;;;;;26.63;17.90;;;12.60;99.90;;;;;;20964948;28;20448;-52
2023/03/23 08:56:17;;;;;;;26.95;18.17;;;14.10;99.90;;;;;;20980539;28;20025;-52
2023/03/23 09:06:22;;;;;;;30.25;19.05;;;14.30;99.90;;;;;;20997816;28;20028;-53
2023/03/23 09:16:23;;;;;;;26.48;16.50;;;14.70;99.90;;;;;;20997156;28;20497;-52
2023/03/23 09:26:26;;;;;;;28.35;16.98;;;15.50;99.90;;;;;;20995841;28;20032;-52
2023/03/23 09:36:31;;;;;;;25.65;17.58;;;15.70;99.90;;;;;;20995542;28;20020;-52
2023/03/23 09:46:51;;;;;;;29.25;18.48;;;16.50;99.90;;;;;;20995567;28;20436;-54
2023/03/23 09:56:54;;;;;;;28.63;19.55;;;16.40;99.50;;;;;;20994701;28;20032;-52
2023/03/23 10:07:18;;;;;;;31.25;22.35;;;16.50;97.70;;;;;;20994357;28;20382;-53
2023/03/23 10:17:29;;;;;;;34.33;23.60;;;17.10;99.90;;;;;;20991449;28;20078;-53
2023/03/23 10:27:56;;;;;;;33.88;22.23;;;17.10;97.20;;;;;;20991350;28;20490;-55
2023/03/23 10:38:11;;;;;;;37.83;24.90;;;16.10;99.90;;;;;;20990744;28;20033;-48
2023/03/23 10:48:33;;;;;;;32.22;22.95;;;17.20;98.50;;;;;;20989753;28;20032;-51
2023/03/23 10:58:35;;;;;;;39.83;26.80;;;17.20;97.80;;;;;;20988225;28;20107;-52
2023/03/23 11:08:58;;;;;;;42.72;27.77;;;16.00;99.70;;;;;;20989149;28;20410;-54
2023/03/23 11:19:11;;;;;;;42.08;28.42;;;15.00;99.90;;;;;;20988075;28;20109;-50
2023/03/23 11:29:19;;;;;;;41.00;27.85;;;15.90;99.90;;;;;;20938986;28;20033;-51
2023/03/23 11:39:21;;;;;;;43.65;29.77;;;16.40;99.90;;;;;;20986451;28;20086;-48
2023/03/23 11:49:40;;;;;;;46.83;29.30;;;16.70;99.90;;;;;;20984550;28;20047;-50
2023/03/23 11:59:41;;;;;;;42.73;27.17;;;17.20;99.90;;;;;;20985834;28;20028;-53
2023/03/23 12:09:54;;;;;;;38.38;27.20;;;17.80;99.90;;;;;;20996635;28;20051;-51
2023/03/23 12:20:16;;;;;;;37.92;25.60;;;17.90;99.30;;;;;;21001168;28;20033;-49
2023/03/23 12:30:39;;;;;;;39.83;26.48;;;17.40;98.10;;;;;;21000553;28;20375;-49
2023/03/23 12:40:50;;;;;;;38.63;25.98;;;17.40;98.80;;;;;;20982192;28;20085;-48
2023/03/23 12:51:13;;;;;;;37.67;25.25;;;17.10;99.40;;;;;;20999463;28;20036;-51
2023/03/23 13:01:22;;;;;;;33.30;22.42;;;17.30;99.40;;;;;;20980590;28;20044;-49
2023/03/23 13:11:34;;;;;;;31.75;21.40;;;17.50;98.00;;;;;;20997990;28;20118;-49
2023/03/23 13:21:50;;;;;;;30.23;19.05;;;17.00;96.90;;;;;;20996465;28;20040;-49
2023/03/23 13:31:52;;;;;;;30.73;18.75;;;17.30;96.20;;;;;;20996084;28;20142;-48
2023/03/23 13:42:08;;;;;;;27.25;18.20;;;17.20;96.30;;;;;;20995353;28;20040;-49
2023/03/23 13:52:24;;;;;;;28.48;16.77;;;16.70;95.00;;;;;;20995887;28;20032;-49
2023/03/23 14:02:47;;;;;;;24.55;14.10;;;16.30;95.00;;;;;;20993442;28;20033;-50
2023/03/23 14:12:53;;;;;;;25.10;15.13;;;16.00;95.10;;;;;;20931326;28;20041;-50
2023/03/23 14:22:56;;;;;;;22.92;12.25;;;15.70;94.10;;;;;;20909368;28;20049;-53
2023/03/23 14:33:08;;;;;;;20.08;11.50;;;15.30;94.20;;;;;;20902188;28;20037;-52
2023/03/23 14:43:15;;;;;;;18.40;9.80;;;14.80;93.50;;;;;;20907911;28;20037;-50
2023/03/23 14:53:24;;;;;;;16.77;7.47;;;14.40;94.10;;;;;;20907558;28;20032;-50
2023/03/23 15:03:28;;;;;;;11.17;6.00;;;13.90;92.70;;;;;;20903938;28;20041;-53
2023/03/23 15:13:30;;;;;;;17.23;7.35;;;13.40;92.80;;;;;;20953528;28;20045;-51
2023/03/23 15:23:32;;;;;;;13.70;7.10;;;13.00;93.60;;;;;;20987524;28;20041;-53
2023/03/23 15:33:39;;;;;;;12.18;7.28;;;12.50;93.80;;;;;;20983769;28;20024;-52
2023/03/23 15:43:52;;;;;;;12.45;7.93;;;12.10;95.50;;;;;;20985846;28;20389;-49
2023/03/23 15:53:55;;;;;;;17.23;8.63;;;11.80;96.10;;;;;;20986638;28;20040;-49
2023/03/23 16:04:15;;;;;;;18.63;9.60;;;11.40;97.10;;;;;;20985206;28;20052;-55
2023/03/23 16:14:17;;;;;;;19.37;9.37;;;10.80;98.40;;;;;;20985424;28;20509;-54
2023/03/23 16:24:18;;;;;;;17.23;9.05;;;9.90;99.40;;;;;;20984698;28;20041;-53
2023/03/23 16:34:20;;;;;;;14.68;8.40;;;9.40;99.90;;;;;;20981834;28;20547;-50
2023/03/23 16:44:22;;;;;;;13.60;7.68;;;9.00;99.90;;;;;;20982675;28;20036;-55
2023/03/23 16:54:23;;;;;;;13.82;7.80;;;8.60;99.90;;;;;;20991383;28;20036;-50
2023/03/23 17:04:25;;;;;;;14.85;7.07;;;8.10;99.90;;;;;;20998227;28;20040;-55
2023/03/23 17:14:27;;;;;;;13.75;7.68;;;7.70;99.90;;;;;;20998454;28;20106;-49
2023/03/23 17:24:29;;;;;;;10.45;5.80;;;7.40;99.90;;;;;;20998210;28;20567;-55
2023/03/23 17:34:30;;;;;;;10.32;4.90;;;7.00;99.90;;;;;;20996000;28;20028;-55
2023/03/23 17:44:32;;;;;;;11.23;5.53;;;6.70;99.90;;;;;;20995409;28;20028;-53
2023/03/23 17:54:34;;;;;;;8.15;4.65;;;6.40;99.90;;;;;;20996201;28;20478;-54
2023/03/23 18:04:36;;;;;;;9.85;5.55;;;6.10;99.90;;;;;;20976362;28;20036;-54
2023/03/23 18:14:38;;;;;;;10.50;5.28;;;5.70;99.90;;;;;;20991958;28;20101;-49
2023/03/23 18:24:40;;;;;;;9.82;5.22;;;5.70;99.90;;;;;;20974667;28;20070;-56
2023/03/23 18:34:42;;;;;;;8.43;4.30;;;5.70;99.90;;;;;;20991274;28;20029;-47
2023/03/23 18:44:44;;;;;;;10.73;5.93;;;5.50;99.90;;;;;;20990354;28;20041;-53
2023/03/23 18:54:45;;;;;;;10.25;5.30;;;5.50;99.90;;;;;;20972045;28;20037;-49
2023/03/23 19:04:48;;;;;;;12.05;5.63;;;5.40;99.90;;;;;;20988621;28;20432;-47
2023/03/23 19:14:51;;;;;;;13.57;6.50;;;5.30;99.90;;;;;;20987533;28;20110;-52
2023/03/23 19:24:52;;;;;;;14.27;6.55;;;5.30;99.90;;;;;;20987589;28;20036;-48
2023/03/23 19:34:54;;;;;;;13.38;6.60;;;5.50;99.90;;;;;;20986910;28;20028;-47
2023/03/23 19:44:56;;;;;;;16.27;6.72;;;5.40;99.90;;;;;;20986272;28;20037;-48
2023/03/23 19:54:58;;;;;;;14.02;7.30;;;5.50;99.90;;;;;;20986122;28;20405;-49
2023/03/23 20:04:59;;;;;;;12.07;6.82;;;5.50;99.90;;;;;;20985328;28;20029;-48
2023/03/23 20:15:02;;;;;;;12.45;7.00;;;5.60;99.90;;;;;;20984825;28;20044;-49
2023/03/23 20:25:06;;;;;;;17.02;6.70;;;5.60;99.90;;;;;;20984574;28;20052;-51
2023/03/23 20:35:09;;;;;;;12.20;6.15;;;5.70;99.90;;;;;;21000835;28;20029;-49
2023/03/23 20:45:12;;;;;;;12.68;6.57;;;5.60;99.90;;;;;;20999868;28;20101;-47
2023/03/23 20:55:15;;;;;;;14.63;6.03;;;5.70;99.90;;;;;;21000098;28;20047;-51
2023/03/23 21:05:16;;;;;;;16.15;6.68;;;5.80;99.90;;;;;;20998526;28;20040;-48
2023/03/23 21:15:19;;;;;;;14.55;6.82;;;5.80;99.90;;;;;;20997644;28;20125;-51
2023/03/23 21:25:23;;;;;;;15.10;7.53;;;5.80;99.90;;;;;;20996702;28;20559;-49
2023/03/23 21:35:25;;;;;;;13.77;7.50;;;5.80;99.90;;;;;;20996403;28;20070;-53
2023/03/23 21:45:27;;;;;;;16.77;8.18;;;5.60;99.90;;;;;;20994973;28;20452;-48
2023/03/23 21:55:29;;;;;;;16.42;8.73;;;5.70;99.90;;;;;;20994849;28;20563;-51
2023/03/23 22:05:31;;;;;;;17.42;8.40;;;6.00;99.90;;;;;;20993826;28;20036;-51
2023/03/23 22:15:34;;;;;;;20.77;8.88;;;6.30;99.90;;;;;;20993164;28;20040;-48
2023/03/23 22:25:36;;;;;;;17.77;8.80;;;6.40;99.90;;;;;;20992291;28;20138;-47
2023/03/23 22:35:38;;;;;;;18.83;8.27;;;6.40;99.90;;;;;;20991995;28;20082;-47
2023/03/23 22:45:39;;;;;;;18.17;9.40;;;6.50;99.90;;;;;;20991160;28;20028;-49
2023/03/23 22:55:48;;;;;;;18.45;10.23;;;6.40;99.90;;;;;;20990854;28;20381;-48
2023/03/23 23:05:51;;;;;;;22.23;11.23;;;6.50;99.90;;;;;;20989010;28;20044;-46
2023/03/23 23:15:55;;;;;;;24.85;12.85;;;6.30;99.90;;;;;;20988464;28;20044;-52
2023/03/23 23:25:57;;;;;;;25.25;12.77;;;6.20;99.90;;;;;;20988204;28;20066;-49
2023/03/23 23:35:58;;;;;;;27.80;13.98;;;5.60;99.90;;;;;;20988556;28;20036;-49
2023/03/23 23:46:00;;;;;;;31.48;15.75;;;5.00;99.90;;;;;;20986494;28;20390;-51
2023/03/23 23:56:03;;;;;;;32.80;17.58;;;4.80;99.90;;;;;;20985875;28;20028;-52
